sensor_id;sensor_type;location;lat;lon;timestamp;temperature;humidity
38684;DHT22;24910;53.248;-6.134;2023-08-08T00:00:06;17.30;78.80
38684;DHT22;24910;53.248;-6.134;2023-08-08T00:02:35;17.40;78.90
38684;DHT22;24910;53.248;-6.134;2023-08-08T00:05:05;17.40;78.80
38684;DHT22;24910;53.248;-6.134;2023-08-08T00:07:34;17.40;78.70
38684;DHT22;24910;53.248;-6.134;2023-08-08T00:10:03;17.30;78.80
38684;DHT22;24910;53.248;-6.134;2023-08-08T00:12:33;17.30;79.00
38684;DHT22;24910;53.248;-6.134;2023-08-08T00:15:02;17.30;79.00
38684;DHT22;24910;53.248;-6.134;2023-08-08T00:17:32;17.30;78.80
38684;DHT22;24910;53.248;-6.134;2023-08-08T00:20:02;17.30;78.80
38684;DHT22;24910;53.248;-6.134;2023-08-08T00:22:31;17.30;78.80
38684;DHT22;24910;53.248;-6.134;2023-08-08T00:25:00;17.40;78.80
38684;DHT22;24910;53.248;-6.134;2023-08-08T00:27:29;17.40;78.70
38684;DHT22;24910;53.248;-6.134;2023-08-08T00:30:00;17.40;78.70
38684;DHT22;24910;53.248;-6.134;2023-08-08T00:32:32;17.40;78.80
38684;DHT22;24910;53.248;-6.134;2023-08-08T00:35:01;17.40;78.90
38684;DHT22;24910;53.248;-6.134;2023-08-08T00:37:30;17.40;78.90
38684;DHT22;24910;53.248;-6.134;2023-08-08T00:39:59;17.40;78.70
38684;DHT22;24910;53.248;-6.134;2023-08-08T00:42:29;17.50;78.70
38684;DHT22;24910;53.248;-6.134;2023-08-08T00:44:58;17.50;78.70
38684;DHT22;24910;53.248;-6.134;2023-08-08T00:47:34;17.40;78.70
38684;DHT22;24910;53.248;-6.134;2023-08-08T00:50:04;17.50;78.80
38684;DHT22;24910;53.248;-6.134;2023-08-08T00:52:34;17.50;78.70
38684;DHT22;24910;53.248;-6.134;2023-08-08T00:55:05;17.50;78.70
38684;DHT22;24910;53.248;-6.134;2023-08-08T00:57:35;17.50;78.70
38684;DHT22;24910;53.248;-6.134;2023-08-08T01:00:07;17.40;78.90
38684;DHT22;24910;53.248;-6.134;2023-08-08T01:02:38;17.40;78.90
38684;DHT22;24910;53.248;-6.134;2023-08-08T01:05:08;17.40;78.90
38684;DHT22;24910;53.248;-6.134;2023-08-08T01:07:44;17.50;78.80
38684;DHT22;24910;53.248;-6.134;2023-08-08T01:10:18;17.50;78.80
38684;DHT22;24910;53.248;-6.134;2023-08-08T01:12:53;17.50;78.80
38684;DHT22;24910;53.248;-6.134;2023-08-08T01:15:24;17.50;78.70
38684;DHT22;24910;53.248;-6.134;2023-08-08T01:17:54;17.60;79.60
38684;DHT22;24910;53.248;-6.134;2023-08-08T01:20:28;17.60;78.70
38684;DHT22;24910;53.248;-6.134;2023-08-08T01:23:07;17.50;79.50
38684;DHT22;24910;53.248;-6.134;2023-08-08T01:25:40;17.60;78.70
38684;DHT22;24910;53.248;-6.134;2023-08-08T01:28:09;17.50;78.80
38684;DHT22;24910;53.248;-6.134;2023-08-08T01:30:38;17.50;79.00
38684;DHT22;24910;53.248;-6.134;2023-08-08T01:33:08;17.50;79.10
38684;DHT22;24910;53.248;-6.134;2023-08-08T01:35:38;17.50;79.10
38684;DHT22;24910;53.248;-6.134;2023-08-08T01:38:12;17.50;79.10
38684;DHT22;24910;53.248;-6.134;2023-08-08T01:40:44;17.50;79.10
38684;DHT22;24910;53.248;-6.134;2023-08-08T01:43:15;17.40;79.20
38684;DHT22;24910;53.248;-6.134;2023-08-08T01:45:44;17.40;79.30
38684;DHT22;24910;53.248;-6.134;2023-08-08T01:48:14;17.50;79.30
38684;DHT22;24910;53.248;-6.134;2023-08-08T01:50:43;17.50;79.20
38684;DHT22;24910;53.248;-6.134;2023-08-08T01:53:13;17.50;79.20
38684;DHT22;24910;53.248;-6.134;2023-08-08T01:55:43;17.50;79.30
38684;DHT22;24910;53.248;-6.134;2023-08-08T01:58:12;17.50;79.30
38684;DHT22;24910;53.248;-6.134;2023-08-08T02:00:41;17.50;79.30
38684;DHT22;24910;53.248;-6.134;2023-08-08T02:03:12;17.50;79.30
38684;DHT22;24910;53.248;-6.134;2023-08-08T02:05:43;17.50;79.30
38684;DHT22;24910;53.248;-6.134;2023-08-08T02:08:12;17.50;79.30
38684;DHT22;24910;53.248;-6.134;2023-08-08T02:10:41;17.50;79.30
38684;DHT22;24910;53.248;-6.134;2023-08-08T02:13:12;17.50;79.30
38684;DHT22;24910;53.248;-6.134;2023-08-08T02:15:41;17.50;79.40
38684;DHT22;24910;53.248;-6.134;2023-08-08T02:18:10;17.50;79.40
38684;DHT22;24910;53.248;-6.134;2023-08-08T02:20:41;17.50;79.40
38684;DHT22;24910;53.248;-6.134;2023-08-08T02:23:10;17.50;79.50
38684;DHT22;24910;53.248;-6.134;2023-08-08T02:25:39;17.40;79.60
38684;DHT22;24910;53.248;-6.134;2023-08-08T02:28:08;17.40;79.60
38684;DHT22;24910;53.248;-6.134;2023-08-08T02:30:39;17.40;79.70
38684;DHT22;24910;53.248;-6.134;2023-08-08T02:33:10;17.40;79.70
38684;DHT22;24910;53.248;-6.134;2023-08-08T02:35:39;17.40;79.70
38684;DHT22;24910;53.248;-6.134;2023-08-08T02:38:08;17.40;79.60
38684;DHT22;24910;53.248;-6.134;2023-08-08T02:40:40;17.40;80.70
38684;DHT22;24910;53.248;-6.134;2023-08-08T02:43:10;17.40;79.70
38684;DHT22;24910;53.248;-6.134;2023-08-08T02:45:41;17.30;79.70
38684;DHT22;24910;53.248;-6.134;2023-08-08T02:48:10;17.40;79.80
38684;DHT22;24910;53.248;-6.134;2023-08-08T02:50:39;17.30;79.80
38684;DHT22;24910;53.248;-6.134;2023-08-08T02:53:11;17.30;79.90
38684;DHT22;24910;53.248;-6.134;2023-08-08T02:55:44;17.30;79.90
38684;DHT22;24910;53.248;-6.134;2023-08-08T02:58:14;17.30;79.90
38684;DHT22;24910;53.248;-6.134;2023-08-08T03:00:45;17.30;80.00
38684;DHT22;24910;53.248;-6.134;2023-08-08T03:03:16;17.30;80.00
38684;DHT22;24910;53.248;-6.134;2023-08-08T03:05:47;17.30;80.00
38684;DHT22;24910;53.248;-6.134;2023-08-08T03:08:18;17.30;80.00
38684;DHT22;24910;53.248;-6.134;2023-08-08T03:10:47;17.30;80.00
38684;DHT22;24910;53.248;-6.134;2023-08-08T03:13:16;17.30;80.00
38684;DHT22;24910;53.248;-6.134;2023-08-08T03:15:50;17.30;80.10
38684;DHT22;24910;53.248;-6.134;2023-08-08T03:18:19;17.20;80.10
38684;DHT22;24910;53.248;-6.134;2023-08-08T03:20:50;17.20;80.10
38684;DHT22;24910;53.248;-6.134;2023-08-08T03:23:20;17.20;80.20
38684;DHT22;24910;53.248;-6.134;2023-08-08T03:25:52;17.20;80.30
38684;DHT22;24910;53.248;-6.134;2023-08-08T03:28:21;17.20;80.30
38684;DHT22;24910;53.248;-6.134;2023-08-08T03:30:53;17.20;80.40
38684;DHT22;24910;53.248;-6.134;2023-08-08T03:33:22;17.20;80.40
38684;DHT22;24910;53.248;-6.134;2023-08-08T03:35:52;17.10;80.40
38684;DHT22;24910;53.248;-6.134;2023-08-08T03:38:21;17.10;80.50
38684;DHT22;24910;53.248;-6.134;2023-08-08T03:40:50;17.10;80.50
38684;DHT22;24910;53.248;-6.134;2023-08-08T03:43:20;17.10;80.50
38684;DHT22;24910;53.248;-6.134;2023-08-08T03:45:49;17.10;80.50
38684;DHT22;24910;53.248;-6.134;2023-08-08T03:48:19;17.00;80.60
38684;DHT22;24910;53.248;-6.134;2023-08-08T03:50:50;17.00;80.70
38684;DHT22;24910;53.248;-6.134;2023-08-08T03:53:19;16.90;80.60
38684;DHT22;24910;53.248;-6.134;2023-08-08T03:55:48;16.90;80.70
38684;DHT22;24910;53.248;-6.134;2023-08-08T03:58:17;17.00;80.80
38684;DHT22;24910;53.248;-6.134;2023-08-08T04:00:47;16.90;80.80
38684;DHT22;24910;53.248;-6.134;2023-08-08T04:03:16;16.90;80.80
38684;DHT22;24910;53.248;-6.134;2023-08-08T04:05:47;16.90;80.80
38684;DHT22;24910;53.248;-6.134;2023-08-08T04:08:16;16.80;80.80
38684;DHT22;24910;53.248;-6.134;2023-08-08T04:10:48;16.80;80.90
38684;DHT22;24910;53.248;-6.134;2023-08-08T04:13:17;16.80;80.90
38684;DHT22;24910;53.248;-6.134;2023-08-08T04:15:46;16.80;81.00
38684;DHT22;24910;53.248;-6.134;2023-08-08T04:18:15;16.70;81.00
38684;DHT22;24910;53.248;-6.134;2023-08-08T04:20:46;16.70;81.10
38684;DHT22;24910;53.248;-6.134;2023-08-08T04:23:16;16.70;81.10
38684;DHT22;24910;53.248;-6.134;2023-08-08T04:25:45;16.60;81.10
38684;DHT22;24910;53.248;-6.134;2023-08-08T04:28:14;16.60;81.20
38684;DHT22;24910;53.248;-6.134;2023-08-08T04:30:43;16.60;81.20
38684;DHT22;24910;53.248;-6.134;2023-08-08T04:33:12;16.60;81.20
38684;DHT22;24910;53.248;-6.134;2023-08-08T04:35:41;16.50;81.20
38684;DHT22;24910;53.248;-6.134;2023-08-08T04:38:13;16.50;81.20
38684;DHT22;24910;53.248;-6.134;2023-08-08T04:40:43;16.50;81.20
38684;DHT22;24910;53.248;-6.134;2023-08-08T04:43:12;16.50;81.20
38684;DHT22;24910;53.248;-6.134;2023-08-08T04:45:41;16.50;81.20
38684;DHT22;24910;53.248;-6.134;2023-08-08T04:48:10;16.50;81.20
38684;DHT22;24910;53.248;-6.134;2023-08-08T04:50:39;16.50;81.10
38684;DHT22;24910;53.248;-6.134;2023-08-08T04:53:08;16.50;81.10
38684;DHT22;24910;53.248;-6.134;2023-08-08T04:55:39;16.50;81.00
38684;DHT22;24910;53.248;-6.134;2023-08-08T04:58:08;16.60;81.20
38684;DHT22;24910;53.248;-6.134;2023-08-08T05:00:37;16.50;82.00
38684;DHT22;24910;53.248;-6.134;2023-08-08T05:03:06;16.50;81.10
38684;DHT22;24910;53.248;-6.134;2023-08-08T05:05:35;16.50;81.20
38684;DHT22;24910;53.248;-6.134;2023-08-08T05:08:05;16.40;81.20
38684;DHT22;24910;53.248;-6.134;2023-08-08T05:10:34;16.50;81.30
38684;DHT22;24910;53.248;-6.134;2023-08-08T05:13:04;16.40;81.30
38684;DHT22;24910;53.248;-6.134;2023-08-08T05:15:33;16.40;81.30
38684;DHT22;24910;53.248;-6.134;2023-08-08T05:18:03;16.40;81.30
38684;DHT22;24910;53.248;-6.134;2023-08-08T05:20:32;16.40;81.20
38684;DHT22;24910;53.248;-6.134;2023-08-08T05:23:01;16.40;81.20
38684;DHT22;24910;53.248;-6.134;2023-08-08T05:25:30;16.40;81.20
38684;DHT22;24910;53.248;-6.134;2023-08-08T05:27:59;16.40;81.20
38684;DHT22;24910;53.248;-6.134;2023-08-08T05:30:29;16.40;81.20
38684;DHT22;24910;53.248;-6.134;2023-08-08T05:32:58;16.40;81.30
38684;DHT22;24910;53.248;-6.134;2023-08-08T05:35:27;16.40;81.30
38684;DHT22;24910;53.248;-6.134;2023-08-08T05:37:56;16.40;81.30
38684;DHT22;24910;53.248;-6.134;2023-08-08T05:40:25;16.40;81.20
38684;DHT22;24910;53.248;-6.134;2023-08-08T05:42:54;16.40;81.10
38684;DHT22;24910;53.248;-6.134;2023-08-08T05:45:24;16.40;81.10
38684;DHT22;24910;53.248;-6.134;2023-08-08T05:47:54;16.50;81.20
38684;DHT22;24910;53.248;-6.134;2023-08-08T05:50:24;16.50;81.20
38684;DHT22;24910;53.248;-6.134;2023-08-08T05:52:53;16.60;81.20
38684;DHT22;24910;53.248;-6.134;2023-08-08T05:55:22;16.60;81.20
38684;DHT22;24910;53.248;-6.134;2023-08-08T05:57:51;16.80;81.10
38684;DHT22;24910;53.248;-6.134;2023-08-08T06:00:21;16.90;81.00
38684;DHT22;24910;53.248;-6.134;2023-08-08T06:02:50;17.00;80.90
38684;DHT22;24910;53.248;-6.134;2023-08-08T06:05:21;17.10;80.90
38684;DHT22;24910;53.248;-6.134;2023-08-08T06:07:51;17.10;80.90
38684;DHT22;24910;53.248;-6.134;2023-08-08T06:10:20;17.10;81.00
38684;DHT22;24910;53.248;-6.134;2023-08-08T06:12:49;17.10;81.00
38684;DHT22;24910;53.248;-6.134;2023-08-08T06:15:18;17.20;80.90
38684;DHT22;24910;53.248;-6.134;2023-08-08T06:17:47;17.30;81.00
38684;DHT22;24910;53.248;-6.134;2023-08-08T06:20:16;17.40;81.00
38684;DHT22;24910;53.248;-6.134;2023-08-08T06:22:48;17.50;80.90
38684;DHT22;24910;53.248;-6.134;2023-08-08T06:25:17;17.50;80.80
38684;DHT22;24910;53.248;-6.134;2023-08-08T06:27:47;17.60;80.80
38684;DHT22;24910;53.248;-6.134;2023-08-08T06:30:17;17.70;80.80
38684;DHT22;24910;53.248;-6.134;2023-08-08T06:32:46;17.70;80.80
38684;DHT22;24910;53.248;-6.134;2023-08-08T06:35:15;17.70;80.80
38684;DHT22;24910;53.248;-6.134;2023-08-08T06:37:47;17.70;80.90
38684;DHT22;24910;53.248;-6.134;2023-08-08T06:40:16;17.80;80.90
38684;DHT22;24910;53.248;-6.134;2023-08-08T06:42:45;17.90;80.90
38684;DHT22;24910;53.248;-6.134;2023-08-08T06:45:14;17.90;80.90
38684;DHT22;24910;53.248;-6.134;2023-08-08T06:47:44;17.90;80.90
38684;DHT22;24910;53.248;-6.134;2023-08-08T06:50:13;18.00;80.80
38684;DHT22;24910;53.248;-6.134;2023-08-08T06:52:44;18.10;81.10
38684;DHT22;24910;53.248;-6.134;2023-08-08T06:55:15;18.10;80.80
38684;DHT22;24910;53.248;-6.134;2023-08-08T06:57:44;18.20;80.80
38684;DHT22;24910;53.248;-6.134;2023-08-08T07:00:14;18.20;80.90
38684;DHT22;24910;53.248;-6.134;2023-08-08T07:02:44;18.20;80.90
38684;DHT22;24910;53.248;-6.134;2023-08-08T07:05:13;18.30;80.90
38684;DHT22;24910;53.248;-6.134;2023-08-08T07:07:42;18.30;80.90
38684;DHT22;24910;53.248;-6.134;2023-08-08T07:10:12;18.20;80.90
38684;DHT22;24910;53.248;-6.134;2023-08-08T07:12:43;18.20;81.10
38684;DHT22;24910;53.248;-6.134;2023-08-08T07:15:12;18.20;81.30
38684;DHT22;24910;53.248;-6.134;2023-08-08T07:17:42;18.30;81.30
38684;DHT22;24910;53.248;-6.134;2023-08-08T07:20:11;18.40;81.20
38684;DHT22;24910;53.248;-6.134;2023-08-08T07:22:42;18.50;80.80
38684;DHT22;24910;53.248;-6.134;2023-08-08T07:25:11;18.60;80.80
38684;DHT22;24910;53.248;-6.134;2023-08-08T07:27:40;18.70;80.50
38684;DHT22;24910;53.248;-6.134;2023-08-08T07:30:12;18.90;80.40
38684;DHT22;24910;53.248;-6.134;2023-08-08T07:32:41;19.00;80.20
38684;DHT22;24910;53.248;-6.134;2023-08-08T07:35:10;19.10;80.10
38684;DHT22;24910;53.248;-6.134;2023-08-08T07:37:40;19.20;80.00
38684;DHT22;24910;53.248;-6.134;2023-08-08T07:40:15;19.20;80.00
38684;DHT22;24910;53.248;-6.134;2023-08-08T07:42:46;19.30;79.80
38684;DHT22;24910;53.248;-6.134;2023-08-08T07:45:16;19.40;79.80
38684;DHT22;24910;53.248;-6.134;2023-08-08T07:47:46;19.50;79.60
38684;DHT22;24910;53.248;-6.134;2023-08-08T07:50:15;19.70;79.60
38684;DHT22;24910;53.248;-6.134;2023-08-08T07:52:45;19.80;79.50
38684;DHT22;24910;53.248;-6.134;2023-08-08T07:55:14;19.90;79.50
38684;DHT22;24910;53.248;-6.134;2023-08-08T07:57:43;20.10;79.40
38684;DHT22;24910;53.248;-6.134;2023-08-08T08:00:13;20.30;79.10
38684;DHT22;24910;53.248;-6.134;2023-08-08T08:02:49;20.40;78.70
38684;DHT22;24910;53.248;-6.134;2023-08-08T08:05:18;20.50;78.80
38684;DHT22;24910;53.248;-6.134;2023-08-08T08:07:48;20.60;78.70
38684;DHT22;24910;53.248;-6.134;2023-08-08T08:10:18;20.60;78.90
38684;DHT22;24910;53.248;-6.134;2023-08-08T08:12:47;20.60;79.00
38684;DHT22;24910;53.248;-6.134;2023-08-08T08:15:17;20.50;79.10
38684;DHT22;24910;53.248;-6.134;2023-08-08T08:17:47;20.30;79.30
38684;DHT22;24910;53.248;-6.134;2023-08-08T08:20:16;20.10;79.70
38684;DHT22;24910;53.248;-6.134;2023-08-08T08:22:45;20.00;80.00
38684;DHT22;24910;53.248;-6.134;2023-08-08T08:25:15;20.00;80.20
38684;DHT22;24910;53.248;-6.134;2023-08-08T08:27:44;19.90;80.20
38684;DHT22;24910;53.248;-6.134;2023-08-08T08:30:13;19.90;80.30
38684;DHT22;24910;53.248;-6.134;2023-08-08T08:32:45;19.90;80.20
38684;DHT22;24910;53.248;-6.134;2023-08-08T08:35:15;20.00;80.10
38684;DHT22;24910;53.248;-6.134;2023-08-08T08:37:44;20.00;80.00
38684;DHT22;24910;53.248;-6.134;2023-08-08T08:40:14;20.10;79.80
38684;DHT22;24910;53.248;-6.134;2023-08-08T08:42:44;20.10;79.80
38684;DHT22;24910;53.248;-6.134;2023-08-08T08:45:16;20.10;79.60
38684;DHT22;24910;53.248;-6.134;2023-08-08T08:47:49;20.10;79.70
38684;DHT22;24910;53.248;-6.134;2023-08-08T08:50:23;20.10;79.60
38684;DHT22;24910;53.248;-6.134;2023-08-08T08:52:55;20.30;79.50
38684;DHT22;24910;53.248;-6.134;2023-08-08T08:55:25;20.40;79.30
38684;DHT22;24910;53.248;-6.134;2023-08-08T08:57:55;20.50;79.20
38684;DHT22;24910;53.248;-6.134;2023-08-08T09:00:24;20.50;78.90
38684;DHT22;24910;53.248;-6.134;2023-08-08T09:02:54;20.60;78.90
38684;DHT22;24910;53.248;-6.134;2023-08-08T09:05:26;20.60;78.90
38684;DHT22;24910;53.248;-6.134;2023-08-08T09:07:55;20.50;79.90
38684;DHT22;24910;53.248;-6.134;2023-08-08T09:10:26;20.50;79.10
38684;DHT22;24910;53.248;-6.134;2023-08-08T09:12:56;20.30;79.10
38684;DHT22;24910;53.248;-6.134;2023-08-08T09:15:25;20.20;79.20
38684;DHT22;24910;53.248;-6.134;2023-08-08T09:17:54;20.20;79.30
38684;DHT22;24910;53.248;-6.134;2023-08-08T09:20:25;20.20;79.30
38684;DHT22;24910;53.248;-6.134;2023-08-08T09:22:55;20.20;79.30
38684;DHT22;24910;53.248;-6.134;2023-08-08T09:25:26;20.20;79.40
38684;DHT22;24910;53.248;-6.134;2023-08-08T09:27:55;20.20;79.20
38684;DHT22;24910;53.248;-6.134;2023-08-08T09:30:26;20.30;79.10
38684;DHT22;24910;53.248;-6.134;2023-08-08T09:32:58;20.20;79.00
38684;DHT22;24910;53.248;-6.134;2023-08-08T09:35:30;20.10;80.00
38684;DHT22;24910;53.248;-6.134;2023-08-08T09:37:59;20.00;79.20
38684;DHT22;24910;53.248;-6.134;2023-08-08T09:40:28;20.00;79.40
38684;DHT22;24910;53.248;-6.134;2023-08-08T09:42:57;20.00;79.40
38684;DHT22;24910;53.248;-6.134;2023-08-08T09:45:27;19.90;79.40
38684;DHT22;24910;53.248;-6.134;2023-08-08T09:48:05;19.90;79.50
38684;DHT22;24910;53.248;-6.134;2023-08-08T09:50:35;19.90;79.50
38684;DHT22;24910;53.248;-6.134;2023-08-08T09:53:05;19.80;79.50
38684;DHT22;24910;53.248;-6.134;2023-08-08T09:55:35;19.80;79.70
38684;DHT22;24910;53.248;-6.134;2023-08-08T09:58:05;19.70;79.70
38684;DHT22;24910;53.248;-6.134;2023-08-08T10:00:35;19.80;79.80
38684;DHT22;24910;53.248;-6.134;2023-08-08T10:03:05;19.60;79.80
38684;DHT22;24910;53.248;-6.134;2023-08-08T10:05:36;19.50;79.80
38684;DHT22;24910;53.248;-6.134;2023-08-08T10:08:06;19.30;80.10
38684;DHT22;24910;53.248;-6.134;2023-08-08T10:10:36;19.20;80.40
38684;DHT22;24910;53.248;-6.134;2023-08-08T10:13:07;19.20;80.50
38684;DHT22;24910;53.248;-6.134;2023-08-08T10:15:37;19.20;80.40
38684;DHT22;24910;53.248;-6.134;2023-08-08T10:18:06;19.10;80.50
38684;DHT22;24910;53.248;-6.134;2023-08-08T10:20:38;19.00;80.70
38684;DHT22;24910;53.248;-6.134;2023-08-08T10:23:07;19.00;80.80
38684;DHT22;24910;53.248;-6.134;2023-08-08T10:25:37;18.90;80.80
38684;DHT22;24910;53.248;-6.134;2023-08-08T10:28:08;18.90;80.90
38684;DHT22;24910;53.248;-6.134;2023-08-08T10:30:56;19.00;80.90
38684;DHT22;24910;53.248;-6.134;2023-08-08T10:33:27;19.00;80.80
38684;DHT22;24910;53.248;-6.134;2023-08-08T10:35:59;19.00;80.80
38684;DHT22;24910;53.248;-6.134;2023-08-08T10:38:40;19.00;80.60
38684;DHT22;24910;53.248;-6.134;2023-08-08T10:41:11;19.10;80.50
38684;DHT22;24910;53.248;-6.134;2023-08-08T10:43:49;19.20;80.40
38684;DHT22;24910;53.248;-6.134;2023-08-08T10:46:23;19.30;80.20
38684;DHT22;24910;53.248;-6.134;2023-08-08T10:48:54;19.50;79.90
38684;DHT22;24910;53.248;-6.134;2023-08-08T10:51:33;19.50;79.60
38684;DHT22;24910;53.248;-6.134;2023-08-08T10:54:04;19.50;79.50
38684;DHT22;24910;53.248;-6.134;2023-08-08T10:56:35;19.50;79.60
38684;DHT22;24910;53.248;-6.134;2023-08-08T10:59:13;19.40;79.70
38684;DHT22;24910;53.248;-6.134;2023-08-08T11:01:46;19.30;79.80
38684;DHT22;24910;53.248;-6.134;2023-08-08T11:04:18;19.30;80.00
38684;DHT22;24910;53.248;-6.134;2023-08-08T11:06:49;19.20;80.00
38684;DHT22;24910;53.248;-6.134;2023-08-08T11:09:19;19.10;80.00
38684;DHT22;24910;53.248;-6.134;2023-08-08T11:11:48;19.10;80.20
38684;DHT22;24910;53.248;-6.134;2023-08-08T11:14:18;19.00;80.20
38684;DHT22;24910;53.248;-6.134;2023-08-08T11:16:51;18.90;80.30
38684;DHT22;24910;53.248;-6.134;2023-08-08T11:19:21;18.90;80.40
38684;DHT22;24910;53.248;-6.134;2023-08-08T11:21:52;18.80;80.40
38684;DHT22;24910;53.248;-6.134;2023-08-08T11:24:21;18.70;80.50
38684;DHT22;24910;53.248;-6.134;2023-08-08T11:26:50;18.70;80.60
38684;DHT22;24910;53.248;-6.134;2023-08-08T11:29:27;18.70;80.40
38684;DHT22;24910;53.248;-6.134;2023-08-08T11:32:00;18.60;80.60
38684;DHT22;24910;53.248;-6.134;2023-08-08T11:34:31;18.60;80.80
38684;DHT22;24910;53.248;-6.134;2023-08-08T11:37:02;18.50;80.80
38684;DHT22;24910;53.248;-6.134;2023-08-08T11:39:32;18.50;80.80
38684;DHT22;24910;53.248;-6.134;2023-08-08T11:42:01;18.50;80.80
38684;DHT22;24910;53.248;-6.134;2023-08-08T11:44:31;18.50;80.80
38684;DHT22;24910;53.248;-6.134;2023-08-08T11:47:00;18.50;80.80
38684;DHT22;24910;53.248;-6.134;2023-08-08T11:49:39;18.40;80.80
38684;DHT22;24910;53.248;-6.134;2023-08-08T11:52:11;18.40;80.90
38684;DHT22;24910;53.248;-6.134;2023-08-08T11:54:41;18.30;80.90
38684;DHT22;24910;53.248;-6.134;2023-08-08T11:57:10;18.30;81.00
38684;DHT22;24910;53.248;-6.134;2023-08-08T11:59:40;18.30;81.10
38684;DHT22;24910;53.248;-6.134;2023-08-08T12:02:10;18.30;81.00
38684;DHT22;24910;53.248;-6.134;2023-08-08T12:04:43;18.30;80.90
38684;DHT22;24910;53.248;-6.134;2023-08-08T12:07:13;18.30;80.90
38684;DHT22;24910;53.248;-6.134;2023-08-08T12:09:42;18.30;81.00
38684;DHT22;24910;53.248;-6.134;2023-08-08T12:12:13;18.20;80.90
38684;DHT22;24910;53.248;-6.134;2023-08-08T12:14:47;18.30;81.00
38684;DHT22;24910;53.248;-6.134;2023-08-08T12:17:28;18.40;80.90
38684;DHT22;24910;53.248;-6.134;2023-08-08T12:19:59;18.40;80.80
38684;DHT22;24910;53.248;-6.134;2023-08-08T12:22:30;18.40;80.80
38684;DHT22;24910;53.248;-6.134;2023-08-08T12:24:59;18.50;80.80
38684;DHT22;24910;53.248;-6.134;2023-08-08T12:27:29;18.50;80.70
38684;DHT22;24910;53.248;-6.134;2023-08-08T12:29:58;18.60;80.70
38684;DHT22;24910;53.248;-6.134;2023-08-08T12:32:28;18.70;80.60
38684;DHT22;24910;53.248;-6.134;2023-08-08T12:34:59;18.70;80.50
38684;DHT22;24910;53.248;-6.134;2023-08-08T12:37:44;18.80;80.50
38684;DHT22;24910;53.248;-6.134;2023-08-08T12:40:13;18.90;80.50
38684;DHT22;24910;53.248;-6.134;2023-08-08T12:42:42;18.90;80.50
38684;DHT22;24910;53.248;-6.134;2023-08-08T12:45:11;19.00;80.50
38684;DHT22;24910;53.248;-6.134;2023-08-08T12:47:40;19.10;80.70
38684;DHT22;24910;53.248;-6.134;2023-08-08T12:50:09;19.20;80.40
38684;DHT22;24910;53.248;-6.134;2023-08-08T12:52:39;19.30;80.10
38684;DHT22;24910;53.248;-6.134;2023-08-08T12:55:09;19.30;80.10
38684;DHT22;24910;53.248;-6.134;2023-08-08T12:57:39;19.30;80.10
38684;DHT22;24910;53.248;-6.134;2023-08-08T13:00:09;19.40;81.00
38684;DHT22;24910;53.248;-6.134;2023-08-08T13:02:40;19.50;79.80
38684;DHT22;24910;53.248;-6.134;2023-08-08T13:05:09;19.70;79.70
38684;DHT22;24910;53.248;-6.134;2023-08-08T13:07:38;19.80;79.40
38684;DHT22;24910;53.248;-6.134;2023-08-08T13:10:09;20.00;79.20
38684;DHT22;24910;53.248;-6.134;2023-08-08T13:12:40;20.00;79.00
38684;DHT22;24910;53.248;-6.134;2023-08-08T13:15:09;20.10;78.90
38684;DHT22;24910;53.248;-6.134;2023-08-08T13:17:41;20.20;78.90
38684;DHT22;24910;53.248;-6.134;2023-08-08T13:20:11;20.20;78.90
38684;DHT22;24910;53.248;-6.134;2023-08-08T13:22:40;20.20;78.90
38684;DHT22;24910;53.248;-6.134;2023-08-08T13:25:11;20.20;79.00
38684;DHT22;24910;53.248;-6.134;2023-08-08T13:27:41;20.20;79.10
38684;DHT22;24910;53.248;-6.134;2023-08-08T13:30:11;20.20;79.10
38684;DHT22;24910;53.248;-6.134;2023-08-08T13:32:40;20.20;79.10
38684;DHT22;24910;53.248;-6.134;2023-08-08T13:35:10;20.20;79.10
38684;DHT22;24910;53.248;-6.134;2023-08-08T13:37:39;20.20;79.10
38684;DHT22;24910;53.248;-6.134;2023-08-08T13:40:08;20.20;79.00
38684;DHT22;24910;53.248;-6.134;2023-08-08T13:42:39;20.20;79.00
38684;DHT22;24910;53.248;-6.134;2023-08-08T13:45:09;20.10;79.10
38684;DHT22;24910;53.248;-6.134;2023-08-08T13:47:38;20.00;79.40
38684;DHT22;24910;53.248;-6.134;2023-08-08T13:50:08;19.90;79.50
38684;DHT22;24910;53.248;-6.134;2023-08-08T13:52:37;19.90;79.60
38684;DHT22;24910;53.248;-6.134;2023-08-08T13:55:07;19.80;79.60
38684;DHT22;24910;53.248;-6.134;2023-08-08T13:57:36;19.80;79.70
38684;DHT22;24910;53.248;-6.134;2023-08-08T14:00:08;19.70;79.70
38684;DHT22;24910;53.248;-6.134;2023-08-08T14:02:39;19.70;79.80
38684;DHT22;24910;53.248;-6.134;2023-08-08T14:05:09;19.60;79.80
38684;DHT22;24910;53.248;-6.134;2023-08-08T14:07:38;19.60;79.80
38684;DHT22;24910;53.248;-6.134;2023-08-08T14:10:08;19.60;79.90
38684;DHT22;24910;53.248;-6.134;2023-08-08T14:12:37;19.50;79.90
38684;DHT22;24910;53.248;-6.134;2023-08-08T14:15:08;19.60;79.90
38684;DHT22;24910;53.248;-6.134;2023-08-08T14:17:37;19.60;79.80
38684;DHT22;24910;53.248;-6.134;2023-08-08T14:20:08;19.70;79.70
38684;DHT22;24910;53.248;-6.134;2023-08-08T14:22:37;19.70;79.60
38684;DHT22;24910;53.248;-6.134;2023-08-08T14:25:11;19.70;79.50
38684;DHT22;24910;53.248;-6.134;2023-08-08T14:27:40;19.80;79.40
38684;DHT22;24910;53.248;-6.134;2023-08-08T14:30:11;19.80;79.40
38684;DHT22;24910;53.248;-6.134;2023-08-08T14:32:40;19.70;79.40
38684;DHT22;24910;53.248;-6.134;2023-08-08T14:35:09;19.60;79.50
38684;DHT22;24910;53.248;-6.134;2023-08-08T14:37:40;19.60;79.50
38684;DHT22;24910;53.248;-6.134;2023-08-08T14:40:11;19.60;79.50
38684;DHT22;24910;53.248;-6.134;2023-08-08T14:42:41;19.60;79.30
38684;DHT22;24910;53.248;-6.134;2023-08-08T14:45:13;19.60;79.40
38684;DHT22;24910;53.248;-6.134;2023-08-08T14:47:42;19.50;79.40
38684;DHT22;24910;53.248;-6.134;2023-08-08T14:50:12;19.50;79.50
38684;DHT22;24910;53.248;-6.134;2023-08-08T14:52:41;19.60;79.50
38684;DHT22;24910;53.248;-6.134;2023-08-08T14:55:10;19.60;79.40
38684;DHT22;24910;53.248;-6.134;2023-08-08T14:57:39;19.60;79.30
38684;DHT22;24910;53.248;-6.134;2023-08-08T15:00:11;19.60;79.30
38684;DHT22;24910;53.248;-6.134;2023-08-08T15:02:50;19.70;79.30
38684;DHT22;24910;53.248;-6.134;2023-08-08T15:05:20;19.70;79.30
38684;DHT22;24910;53.248;-6.134;2023-08-08T15:07:51;19.70;79.20
38684;DHT22;24910;53.248;-6.134;2023-08-08T15:10:22;19.70;79.40
38684;DHT22;24910;53.248;-6.134;2023-08-08T15:12:51;19.70;79.30
38684;DHT22;24910;53.248;-6.134;2023-08-08T15:15:22;19.70;79.30
38684;DHT22;24910;53.248;-6.134;2023-08-08T15:17:53;19.70;79.30
38684;DHT22;24910;53.248;-6.134;2023-08-08T15:20:23;19.70;79.30
38684;DHT22;24910;53.248;-6.134;2023-08-08T15:22:52;19.80;79.30
38684;DHT22;24910;53.248;-6.134;2023-08-08T15:25:21;19.80;79.10
38684;DHT22;24910;53.248;-6.134;2023-08-08T15:27:50;19.80;79.10
38684;DHT22;24910;53.248;-6.134;2023-08-08T15:30:20;19.80;79.10
38684;DHT22;24910;53.248;-6.134;2023-08-08T15:32:50;19.80;79.20